Time;durP1;ratioP1;P1;durP2;ratioP2;P2;SDS_P1;SDS_P2;PMS_P1;PMS_P2;Temp;Humidity;BMP_temperature;BMP_pressure;BME280_temperature;BME280_humidity;BME280_pressure;Samples;Min_cycle;Max_cycle;Signal;HPM_P1;HPM_P2
2024/01/30 00:02:22;;;;;;;11.38;5.63;;;3.70;99.90;;;;;;5034367;28;20033;-76
2024/01/30 00:04:47;;;;;;;14.80;5.95;;;3.60;99.90;;;;;;5034179;28;20382;-76
2024/01/30 00:07:13;;;;;;;15.40;5.45;;;3.50;99.90;;;;;;5035608;28;20076;-76
2024/01/30 00:09:39;;;;;;;8.52;3.97;;;3.40;99.90;;;;;;5035082;28;20040;-76
2024/01/30 00:12:06;;;;;;;9.38;4.35;;;3.50;99.90;;;;;;5025805;28;20052;-75
2024/01/30 00:14:32;;;;;;;14.70;5.53;;;3.40;99.90;;;;;;5036783;28;20025;-75
2024/01/30 00:16:58;;;;;;;7.75;5.22;;;3.50;99.90;;;;;;5059888;28;20037;-75
2024/01/30 00:19:23;;;;;;;9.35;4.85;;;3.50;99.90;;;;;;5022580;28;20083;-76
2024/01/30 00:21:49;;;;;;;9.73;4.18;;;3.50;99.90;;;;;;5038021;28;20038;-75
2024/01/30 00:24:15;;;;;;;9.88;5.00;;;3.60;99.90;;;;;;5036667;28;20104;-75
2024/01/30 00:26:41;;;;;;;8.02;4.25;;;3.60;99.90;;;;;;5038184;28;20121;-75
2024/01/30 00:29:06;;;;;;;9.90;4.63;;;3.70;99.90;;;;;;5034890;28;20034;-75
2024/01/30 00:31:32;;;;;;;12.25;4.43;;;3.70;99.90;;;;;;5041207;28;20083;-76
2024/01/30 00:33:58;;;;;;;7.38;3.92;;;3.70;99.90;;;;;;5040683;28;20108;-76
2024/01/30 00:36:23;;;;;;;9.63;4.22;;;3.70;99.90;;;;;;5043435;28;20017;-75
2024/01/30 00:38:49;;;;;;;8.75;4.78;;;3.60;99.90;;;;;;5040546;28;20032;-76
2024/01/30 00:41:19;;;;;;;8.82;3.58;;;3.70;99.90;;;;;;5044214;28;20030;-75
2024/01/30 00:43:44;;;;;;;9.75;3.78;;;3.60;99.90;;;;;;5039669;28;20401;-75
2024/01/30 00:46:10;;;;;;;12.88;4.18;;;3.60;99.90;;;;;;5043984;28;20032;-75
2024/01/30 00:48:36;;;;;;;7.93;3.83;;;3.60;99.90;;;;;;5038944;28;20029;-75
2024/01/30 00:51:02;;;;;;;9.13;4.47;;;3.50;99.90;;;;;;5017937;28;20387;-76
2024/01/30 00:53:27;;;;;;;7.80;3.85;;;3.50;99.90;;;;;;5035969;28;20021;-75
2024/01/30 00:55:53;;;;;;;9.43;6.05;;;3.60;99.90;;;;;;5037665;28;20417;-75
2024/01/30 00:58:19;;;;;;;9.13;4.10;;;3.60;99.90;;;;;;5037071;28;20033;-75
2024/01/30 01:00:45;;;;;;;13.82;4.38;;;3.50;99.90;;;;;;5031869;28;20076;-75
2024/01/30 01:03:11;;;;;;;8.57;3.95;;;3.60;99.90;;;;;;5032797;28;20087;-75
2024/01/30 01:05:36;;;;;;;7.68;4.18;;;3.70;99.90;;;;;;5034748;28;20034;-76
2024/01/30 01:08:02;;;;;;;10.45;4.22;;;3.60;99.90;;;;;;5031358;28;20029;-76
2024/01/30 01:10:28;;;;;;;8.80;3.97;;;3.60;99.90;;;;;;5029065;28;20025;-76
2024/01/30 01:12:54;;;;;;;7.55;3.20;;;3.60;99.90;;;;;;5040972;28;20029;-76
2024/01/30 01:15:20;;;;;;;14.55;4.40;;;3.60;99.90;;;;;;5036468;28;20032;-76
2024/01/30 01:17:46;;;;;;;5.68;4.13;;;3.60;99.90;;;;;;5041645;28;20033;-76
2024/01/30 01:20:12;;;;;;;12.80;4.65;;;3.60;99.90;;;;;;5040241;28;20041;-76
2024/01/30 01:22:38;;;;;;;7.88;3.15;;;3.50;99.90;;;;;;5038196;28;20021;-76
2024/01/30 01:25:08;;;;;;;6.05;3.33;;;3.50;99.90;;;;;;5025245;28;20100;-76
2024/01/30 01:27:34;;;;;;;8.40;4.10;;;3.60;99.90;;;;;;5039852;28;20139;-76
2024/01/30 01:30:00;;;;;;;7.53;4.32;;;3.50;99.90;;;;;;5038005;28;20478;-76
2024/01/30 01:32:26;;;;;;;5.88;3.95;;;3.60;99.90;;;;;;5036101;28;20121;-76
2024/01/30 01:34:52;;;;;;;11.52;3.53;;;3.50;99.90;;;;;;5043617;28;20151;-76
2024/01/30 01:37:18;;;;;;;6.38;3.47;;;3.50;99.90;;;;;;5033711;28;20346;-76
2024/01/30 01:39:43;;;;;;;5.95;2.85;;;3.50;99.90;;;;;;5037030;28;20401;-77
2024/01/30 01:42:09;;;;;;;6.18;3.78;;;3.50;99.90;;;;;;5033057;28;20026;-77
2024/01/30 01:44:35;;;;;;;7.20;3.55;;;3.60;99.90;;;;;;5038312;28;20025;-76
2024/01/30 01:47:01;;;;;;;7.95;3.20;;;3.60;99.90;;;;;;5038614;28;20035;-77
2024/01/30 01:49:28;;;;;;;10.48;4.35;;;3.70;99.90;;;;;;5040633;28;20143;-75
2024/01/30 01:51:59;;;;;;;9.02;3.80;;;3.70;99.90;;;;;;5036503;28;20044;-76
2024/01/30 01:54:27;;;;;;;6.63;3.70;;;3.70;99.90;;;;;;5036888;28;20029;-76
2024/01/30 01:56:53;;;;;;;5.63;3.20;;;3.70;99.90;;;;;;5040844;28;20052;-76
2024/01/30 01:59:20;;;;;;;10.57;4.32;;;3.80;99.90;;;;;;5036847;28;20116;-76
2024/01/30 02:01:49;;;;;;;5.75;4.00;;;3.70;99.90;;;;;;5034387;28;20501;-76
2024/01/30 02:04:15;;;;;;;7.85;3.72;;;3.70;99.90;;;;;;5033466;28;20041;-76
2024/01/30 02:06:43;;;;;;;6.30;3.72;;;3.70;99.90;;;;;;5031645;28;20025;-76
2024/01/30 02:09:09;;;;;;;6.35;3.55;;;3.70;99.90;;;;;;5039085;28;20108;-77
2024/01/30 02:11:34;;;;;;;11.70;4.20;;;3.70;99.90;;;;;;5030936;28;20466;-75
2024/01/30 02:14:04;;;;;;;12.23;3.95;;;3.60;99.90;;;;;;5035416;28;20026;-76
2024/01/30 02:16:31;;;;;;;9.38;3.75;;;3.60;99.90;;;;;;5039728;28;20565;-76
2024/01/30 02:18:57;;;;;;;8.57;3.88;;;3.60;99.90;;;;;;5038355;28;20396;-76
2024/01/30 02:21:23;;;;;;;6.68;3.00;;;3.70;99.90;;;;;;5035654;28;20029;-76
2024/01/30 02:23:49;;;;;;;5.30;2.95;;;3.60;99.90;;;;;;5039435;28;20545;-76
2024/01/30 02:26:15;;;;;;;6.93;3.38;;;3.70;99.90;;;;;;5036615;28;20045;-76
2024/01/30 02:28:41;;;;;;;7.25;3.95;;;3.70;99.90;;;;;;5037745;28;20033;-76
2024/01/30 02:31:07;;;;;;;6.60;3.33;;;3.60;99.90;;;;;;5033061;28;20030;-75
2024/01/30 02:33:33;;;;;;;8.82;3.85;;;3.60;99.90;;;;;;5038676;28;20037;-75
2024/01/30 02:35:58;;;;;;;9.43;3.05;;;3.60;99.90;;;;;;5036599;28;20030;-74
2024/01/30 02:38:26;;;;;;;7.50;3.78;;;3.60;99.90;;;;;;5039814;28;20030;-77
2024/01/30 02:40:53;;;;;;;8.60;4.43;;;3.50;99.90;;;;;;5038517;28;20034;-76
2024/01/30 02:43:18;;;;;;;5.05;2.85;;;3.40;99.90;;;;;;5038605;28;20090;-75
2024/01/30 02:45:44;;;;;;;10.13;3.67;;;3.40;99.90;;;;;;5041732;28;20028;-76
2024/01/30 02:48:10;;;;;;;3.83;2.38;;;3.40;99.90;;;;;;5035101;28;20022;-76
2024/01/30 02:50:35;;;;;;;5.50;3.72;;;3.30;99.90;;;;;;5042276;28;20037;-76
2024/01/30 02:53:01;;;;;;;5.18;3.70;;;3.30;99.90;;;;;;5041084;28;20037;-76
2024/01/30 02:55:27;;;;;;;8.60;3.55;;;3.20;99.90;;;;;;5042239;28;20485;-76
2024/01/30 02:57:52;;;;;;;6.25;3.40;;;3.10;99.90;;;;;;5042923;28;20033;-76
2024/01/30 03:00:20;;;;;;;8.10;3.35;;;3.10;99.90;;;;;;5039003;28;20044;-76
2024/01/30 03:02:45;;;;;;;3.35;2.55;;;3.10;99.90;;;;;;5038156;28;20052;-76
2024/01/30 03:05:11;;;;;;;8.73;4.22;;;3.10;99.90;;;;;;5022568;28;20033;-76
2024/01/30 03:07:37;;;;;;;7.18;3.10;;;3.00;99.90;;;;;;5035386;28;20022;-76
2024/01/30 03:10:05;;;;;;;8.88;3.45;;;3.00;99.90;;;;;;5036486;28;20033;-76
2024/01/30 03:12:32;;;;;;;5.38;2.92;;;3.00;99.90;;;;;;5040003;28;20064;-76
2024/01/30 03:14:58;;;;;;;6.03;3.70;;;3.10;99.90;;;;;;5038835;28;20082;-75
2024/01/30 03:17:24;;;;;;;14.75;4.20;;;3.00;99.90;;;;;;5037835;28;20433;-76
2024/01/30 03:19:53;;;;;;;5.75;2.97;;;3.00;99.90;;;;;;5043217;28;20178;-76
2024/01/30 03:22:19;;;;;;;11.70;3.78;;;3.00;99.90;;;;;;5036701;28;20092;-75
2024/01/30 03:24:44;;;;;;;6.03;2.90;;;3.00;99.90;;;;;;5044404;28;20033;-75
2024/01/30 03:27:10;;;;;;;7.55;3.08;;;3.00;99.90;;;;;;5038250;28;20033;-75
2024/01/30 03:29:36;;;;;;;5.60;4.10;;;3.00;99.90;;;;;;5045571;28;20029;-76
2024/01/30 03:32:03;;;;;;;6.10;3.13;;;3.00;99.90;;;;;;5039817;28;20060;-75
2024/01/30 03:34:29;;;;;;;4.28;2.75;;;3.00;99.90;;;;;;5054818;28;20059;-75
2024/01/30 03:36:55;;;;;;;8.63;3.60;;;3.00;99.90;;;;;;5038232;28;20096;-75
2024/01/30 03:39:21;;;;;;;5.70;3.40;;;3.00;99.90;;;;;;5038529;28;20667;-75
2024/01/30 03:41:46;;;;;;;8.45;3.78;;;3.00;99.90;;;;;;5036086;28;20033;-75
2024/01/30 03:44:12;;;;;;;5.05;3.15;;;3.10;99.90;;;;;;5032459;28;20041;-75
2024/01/30 03:46:38;;;;;;;6.47;2.95;;;3.00;99.90;;;;;;5030995;28;20057;-75
2024/01/30 03:49:03;;;;;;;4.93;2.67;;;3.10;99.90;;;;;;5036213;28;20023;-76
2024/01/30 03:51:29;;;;;;;7.70;3.78;;;3.10;99.90;;;;;;5045182;28;20025;-75
2024/01/30 03:53:55;;;;;;;7.50;3.70;;;3.10;99.90;;;;;;5055777;28;20033;-76
2024/01/30 03:56:21;;;;;;;9.15;3.20;;;3.10;99.90;;;;;;5022060;28;20038;-76
2024/01/30 03:58:46;;;;;;;7.53;3.42;;;3.10;99.90;;;;;;5041978;28;20040;-76
2024/01/30 04:01:15;;;;;;;7.38;3.45;;;3.10;99.90;;;;;;5020273;28;20042;-75
2024/01/30 04:03:43;;;;;;;9.25;3.47;;;3.10;99.90;;;;;;5044165;28;20025;-75
2024/01/30 04:06:12;;;;;;;7.72;3.35;;;3.20;99.90;;;;;;5039560;28;20167;-76
2024/01/30 04:08:37;;;;;;;10.07;3.28;;;3.20;99.90;;;;;;5037854;28;20458;-76
2024/01/30 04:11:07;;;;;;;6.70;2.72;;;3.20;99.90;;;;;;5035329;28;20040;-76
2024/01/30 04:13:36;;;;;;;9.80;3.22;;;3.10;99.90;;;;;;5021536;28;20022;-77
2024/01/30 04:16:03;;;;;;;7.93;3.40;;;3.10;99.90;;;;;;5040401;28;20033;-74
2024/01/30 04:18:29;;;;;;;5.78;3.35;;;3.10;99.90;;;;;;5040931;28;20022;-76
2024/01/30 04:20:55;;;;;;;7.30;3.28;;;3.00;99.90;;;;;;5036369;28;20026;-77
2024/01/30 04:23:21;;;;;;;6.78;2.92;;;3.10;99.90;;;;;;5042363;28;20044;-76
2024/01/30 04:25:47;;;;;;;9.95;3.45;;;3.10;99.90;;;;;;5044266;28;20020;-77
2024/01/30 04:28:13;;;;;;;5.00;3.03;;;3.20;99.90;;;;;;5038901;28;20028;-76
2024/01/30 04:30:39;;;;;;;10.35;4.13;;;3.20;99.90;;;;;;5024144;28;20029;-77
2024/01/30 04:33:05;;;;;;;15.13;3.67;;;3.20;99.90;;;;;;5017287;28;20087;-77
2024/01/30 04:35:31;;;;;;;9.90;3.92;;;3.20;99.90;;;;;;5037197;28;20021;-76
2024/01/30 04:37:57;;;;;;;6.32;3.33;;;3.30;99.90;;;;;;5037151;28;20070;-76
2024/01/30 04:40:23;;;;;;;11.73;3.90;;;3.40;99.90;;;;;;5034366;28;20084;-76
2024/01/30 04:42:49;;;;;;;15.25;3.78;;;3.50;99.90;;;;;;5040330;28;20013;-77
2024/01/30 04:45:14;;;;;;;7.63;3.30;;;3.60;99.90;;;;;;5020865;28;20034;-76
2024/01/30 04:47:40;;;;;;;7.43;4.05;;;3.70;99.90;;;;;;5060671;28;20017;-76
2024/01/30 04:50:08;;;;;;;8.25;3.92;;;3.70;99.90;;;;;;5036300;28;20021;-76
2024/01/30 04:52:34;;;;;;;8.75;3.38;;;3.70;99.90;;;;;;5020103;28;20021;-76
2024/01/30 04:55:00;;;;;;;8.02;3.22;;;3.60;99.90;;;;;;5038573;28;20381;-77
2024/01/30 04:57:26;;;;;;;6.07;3.13;;;3.60;99.90;;;;;;5036792;28;20037;-76
2024/01/30 04:59:51;;;;;;;10.18;4.50;;;3.60;99.90;;;;;;5041694;28;20021;-75
2024/01/30 05:02:17;;;;;;;6.05;3.13;;;3.60;99.90;;;;;;5036835;28;20393;-76
2024/01/30 05:04:43;;;;;;;6.80;3.30;;;3.60;99.90;;;;;;5043072;28;20075;-75
2024/01/30 05:07:09;;;;;;;13.27;4.47;;;3.70;99.90;;;;;;5037677;28;20021;-77
2024/01/30 05:09:34;;;;;;;13.75;3.80;;;3.80;99.90;;;;;;5038432;28;20028;-75
2024/01/30 05:12:00;;;;;;;6.10;3.05;;;3.80;99.90;;;;;;5037503;28;20095;-76
2024/01/30 05:14:26;;;;;;;5.47;3.90;;;3.80;99.90;;;;;;5017554;28;20039;-76
2024/01/30 05:16:52;;;;;;;7.40;4.00;;;3.70;99.90;;;;;;5039549;28;20047;-76
2024/01/30 05:19:17;;;;;;;7.68;3.45;;;3.80;99.90;;;;;;5051482;28;20033;-76
2024/01/30 05:21:43;;;;;;;7.82;4.00;;;3.80;99.90;;;;;;5042935;28;20034;-76
2024/01/30 05:24:10;;;;;;;6.72;3.22;;;3.80;99.90;;;;;;5042261;28;20578;-76
2024/01/30 05:26:36;;;;;;;8.48;3.65;;;3.90;99.90;;;;;;5061555;28;20032;-82
2024/01/30 05:29:02;;;;;;;10.57;3.80;;;3.80;99.90;;;;;;5038203;28;20108;-72
2024/01/30 05:31:28;;;;;;;9.13;4.45;;;3.80;99.90;;;;;;5039079;28;20060;-72
2024/01/30 05:33:55;;;;;;;10.32;4.65;;;3.80;99.90;;;;;;5040648;28;20036;-72
2024/01/30 05:36:21;;;;;;;7.88;3.38;;;3.80;99.90;;;;;;5036242;28;20091;-72
2024/01/30 05:38:47;;;;;;;6.90;3.15;;;3.80;99.90;;;;;;5041169;28;20037;-73
2024/01/30 05:41:13;;;;;;;6.45;3.83;;;3.90;99.90;;;;;;5030258;28;20036;-73
2024/01/30 05:43:39;;;;;;;5.68;3.13;;;3.90;99.90;;;;;;5041553;28;20021;-73
2024/01/30 05:46:06;;;;;;;10.30;4.38;;;3.90;99.90;;;;;;5034563;28;20037;-73
2024/01/30 05:48:31;;;;;;;6.60;3.92;;;3.90;99.90;;;;;;5030969;28;20052;-72
2024/01/30 05:50:59;;;;;;;8.15;3.75;;;3.90;99.90;;;;;;5035197;28;20044;-73
2024/01/30 05:53:25;;;;;;;8.38;4.20;;;3.90;99.90;;;;;;5032317;28;20097;-72
2024/01/30 05:55:51;;;;;;;9.82;3.95;;;3.90;99.90;;;;;;5036068;28;20083;-72
2024/01/30 05:58:17;;;;;;;14.90;4.40;;;3.90;99.90;;;;;;5035066;28;20044;-73
2024/01/30 06:00:42;;;;;;;7.57;3.88;;;3.90;99.90;;;;;;5036776;28;20041;-72
2024/01/30 06:03:08;;;;;;;6.03;3.90;;;3.90;99.90;;;;;;5034014;28;20025;-73
2024/01/30 06:05:34;;;;;;;10.35;4.15;;;3.90;99.90;;;;;;5035466;28;20387;-73
2024/01/30 06:08:00;;;;;;;8.15;4.35;;;3.90;99.90;;;;;;5030465;28;20061;-73
2024/01/30 06:10:26;;;;;;;11.80;4.47;;;4.00;99.90;;;;;;5035205;28;20470;-72
2024/01/30 06:12:51;;;;;;;6.97;4.35;;;4.00;99.90;;;;;;5035778;28;20033;-72
2024/01/30 06:15:17;;;;;;;11.23;4.20;;;3.90;99.90;;;;;;5038860;28;20037;-73
2024/01/30 06:17:43;;;;;;;8.63;3.92;;;3.90;99.90;;;;;;5037490;28;20452;-72
2024/01/30 06:20:10;;;;;;;8.18;3.20;;;3.90;99.90;;;;;;5036141;28;20030;-71
2024/01/30 06:22:36;;;;;;;11.50;5.03;;;3.90;99.90;;;;;;5033351;28;20028;-72
2024/01/30 06:25:02;;;;;;;9.05;4.53;;;3.90;99.90;;;;;;5042003;28;20041;-73
2024/01/30 06:27:27;;;;;;;9.85;5.00;;;3.90;99.90;;;;;;5042475;28;20040;-73
2024/01/30 06:29:53;;;;;;;9.38;4.38;;;3.90;99.90;;;;;;5033973;28;20029;-72
2024/01/30 06:32:19;;;;;;;8.38;3.70;;;3.90;99.90;;;;;;5037080;28;20093;-71
2024/01/30 06:34:45;;;;;;;5.65;3.05;;;3.90;99.90;;;;;;5036877;28;20037;-71
2024/01/30 06:37:11;;;;;;;8.20;4.18;;;3.90;99.90;;;;;;5028755;28;20490;-71
2024/01/30 06:39:36;;;;;;;5.75;3.85;;;3.90;99.90;;;;;;5033463;28;20029;-71
2024/01/30 06:42:02;;;;;;;6.47;3.35;;;3.90;99.90;;;;;;5027962;28;20394;-71
2024/01/30 06:44:28;;;;;;;15.38;5.10;;;3.90;99.90;;;;;;5033836;28;20099;-72
2024/01/30 06:46:54;;;;;;;13.00;5.78;;;4.00;99.90;;;;;;5034672;28;20414;-72
2024/01/30 06:49:21;;;;;;;12.90;4.60;;;4.00;99.90;;;;;;5034447;28;20029;-72
2024/01/30 06:51:47;;;;;;;11.07;4.53;;;4.10;99.90;;;;;;5036499;28;20056;-72
2024/01/30 06:54:13;;;;;;;14.35;5.60;;;4.10;99.90;;;;;;5040064;28;20482;-72
2024/01/30 06:56:39;;;;;;;14.70;5.53;;;4.10;99.90;;;;;;5033786;28;20029;-72
2024/01/30 06:59:05;;;;;;;9.80;4.43;;;4.10;99.90;;;;;;5033478;28;20064;-72
2024/01/30 07:01:31;;;;;;;9.50;4.20;;;4.10;99.90;;;;;;5033080;28;20527;-72
2024/01/30 07:03:57;;;;;;;7.88;3.90;;;4.20;99.90;;;;;;5032778;28;20140;-72
2024/01/30 07:06:23;;;;;;;12.15;5.07;;;4.20;99.90;;;;;;5034654;28;20029;-72
2024/01/30 07:08:51;;;;;;;7.18;3.78;;;4.20;99.90;;;;;;5034451;28;20040;-72
2024/01/30 07:11:24;;;;;;;6.57;4.10;;;4.20;99.90;;;;;;5026473;28;20046;-72
2024/01/30 07:13:53;;;;;;;6.32;3.67;;;4.10;99.90;;;;;;5028467;28;20096;-72
2024/01/30 07:16:19;;;;;;;11.23;3.60;;;4.20;99.90;;;;;;5032076;28;20076;-72
2024/01/30 07:18:45;;;;;;;9.45;4.50;;;4.20;99.90;;;;;;5033963;28;20092;-71
2024/01/30 07:21:11;;;;;;;8.63;3.53;;;4.20;99.90;;;;;;5013447;28;20084;-73
2024/01/30 07:23:38;;;;;;;8.00;4.70;;;4.20;99.90;;;;;;5027641;28;20049;-73
2024/01/30 07:26:08;;;;;;;10.32;3.75;;;4.20;99.90;;;;;;5022517;28;20022;-72
2024/01/30 07:28:34;;;;;;;6.68;4.13;;;4.30;99.90;;;;;;5031671;28;20029;-72
2024/01/30 07:31:01;;;;;;;8.95;4.38;;;4.40;99.90;;;;;;5029474;28;20061;-72
2024/01/30 07:33:27;;;;;;;9.63;4.90;;;4.40;99.90;;;;;;5022940;28;20041;-72
2024/01/30 07:35:53;;;;;;;8.48;5.00;;;4.40;99.90;;;;;;5033904;28;20033;-72
2024/01/30 07:38:19;;;;;;;6.60;3.95;;;4.40;99.90;;;;;;5031484;28;20129;-72
2024/01/30 07:40:45;;;;;;;10.07;4.40;;;4.40;99.90;;;;;;5032321;28;20033;-72
2024/01/30 07:43:12;;;;;;;8.48;4.22;;;4.40;99.90;;;;;;5024327;28;20423;-72
2024/01/30 07:45:38;;;;;;;6.07;3.85;;;4.50;99.90;;;;;;5031967;28;20033;-72
2024/01/30 07:48:08;;;;;;;14.68;6.45;;;4.50;99.90;;;;;;5032752;28;20485;-73
2024/01/30 07:50:34;;;;;;;11.05;5.30;;;4.50;99.90;;;;;;5033853;28;20139;-71
2024/01/30 07:53:01;;;;;;;7.10;4.30;;;4.50;99.90;;;;;;5012044;28;20148;-72
2024/01/30 07:55:31;;;;;;;11.13;4.82;;;4.50;99.90;;;;;;5031521;28;20036;-71
2024/01/30 07:57:57;;;;;;;8.35;4.15;;;4.50;99.90;;;;;;5025736;28;20045;-71
2024/01/30 08:00:23;;;;;;;9.77;5.00;;;4.50;99.90;;;;;;5031209;28;20041;-72
2024/01/30 08:02:48;;;;;;;7.63;4.55;;;4.60;99.90;;;;;;5031166;28;20029;-72
2024/01/30 08:05:15;;;;;;;7.15;4.35;;;4.70;99.90;;;;;;5033410;28;20057;-72
2024/01/30 08:07:44;;;;;;;4.90;3.30;;;4.70;99.90;;;;;;5026198;28;20029;-72
2024/01/30 08:10:12;;;;;;;18.02;5.82;;;4.80;99.90;;;;;;5032139;28;20032;-72
2024/01/30 08:12:38;;;;;;;12.13;4.10;;;4.90;99.90;;;;;;5027606;28;20022;-72
2024/01/30 08:15:04;;;;;;;12.43;5.38;;;4.90;99.90;;;;;;5029448;28;20125;-72
2024/01/30 08:17:30;;;;;;;12.65;5.00;;;4.90;99.90;;;;;;5031980;28;20482;-72
2024/01/30 08:19:56;;;;;;;13.63;5.55;;;4.90;99.90;;;;;;5031186;28;20104;-72
2024/01/30 08:22:22;;;;;;;9.95;4.32;;;5.00;99.90;;;;;;5032341;28;20470;-72
2024/01/30 08:24:47;;;;;;;16.35;4.70;;;5.10;99.90;;;;;;5053921;28;20065;-72
2024/01/30 08:27:13;;;;;;;7.40;4.75;;;5.20;99.90;;;;;;5031793;28;20478;-72
2024/01/30 08:29:39;;;;;;;12.98;4.25;;;5.20;99.90;;;;;;5032823;28;20014;-72
2024/01/30 08:32:06;;;;;;;12.75;4.78;;;5.20;99.90;;;;;;5032844;28;20378;-72
2024/01/30 08:34:32;;;;;;;7.43;4.13;;;5.30;99.90;;;;;;5013587;28;20028;-72
2024/01/30 08:36:58;;;;;;;9.48;4.85;;;5.30;99.90;;;;;;5012184;28;20497;-72
2024/01/30 08:39:24;;;;;;;10.45;4.45;;;5.30;99.90;;;;;;5031312;28;20116;-73
2024/01/30 08:41:50;;;;;;;14.10;4.28;;;5.30;99.90;;;;;;5026611;28;20038;-72
2024/01/30 08:44:17;;;;;;;5.80;3.40;;;5.40;99.90;;;;;;5027779;28;20526;-72
2024/01/30 08:46:46;;;;;;;13.27;4.20;;;5.40;99.90;;;;;;5024335;28;20172;-72
2024/01/30 08:49:13;;;;;;;11.40;4.38;;;5.50;99.90;;;;;;5011192;28;20094;-73
2024/01/30 08:51:41;;;;;;;8.07;4.25;;;5.50;99.90;;;;;;5024039;28;20441;-72
2024/01/30 08:54:07;;;;;;;5.38;3.67;;;5.50;99.90;;;;;;5030675;28;20179;-72
2024/01/30 08:56:33;;;;;;;26.58;4.95;;;5.60;99.90;;;;;;5032506;28;20112;-72
2024/01/30 08:58:59;;;;;;;10.45;3.20;;;5.60;99.90;;;;;;5032518;28;20040;-72
2024/01/30 09:01:26;;;;;;;11.93;4.95;;;5.60;99.90;;;;;;5030772;28;20516;-72
2024/01/30 09:03:52;;;;;;;9.32;4.47;;;5.60;99.90;;;;;;5030303;28;20044;-72
2024/01/30 09:06:17;;;;;;;9.02;4.38;;;5.70;99.90;;;;;;5031856;28;20025;-72
2024/01/30 09:08:43;;;;;;;11.68;5.05;;;5.70;99.90;;;;;;5027828;28;20506;-72
2024/01/30 09:11:11;;;;;;;16.23;4.30;;;5.70;99.90;;;;;;5029298;28;20036;-72
2024/01/30 09:13:37;;;;;;;15.57;4.60;;;5.70;99.90;;;;;;5026807;28;20058;-71
2024/01/30 09:16:04;;;;;;;9.57;4.63;;;5.80;99.90;;;;;;5027184;28;20496;-71
2024/01/30 09:18:30;;;;;;;16.42;5.03;;;5.80;99.90;;;;;;5030845;28;20036;-71
2024/01/30 09:20:55;;;;;;;10.57;4.20;;;5.90;99.90;;;;;;5030443;28;20048;-72
2024/01/30 09:23:21;;;;;;;13.95;5.05;;;5.90;99.90;;;;;;5028531;28;20143;-72
2024/01/30 09:25:49;;;;;;;7.30;4.03;;;6.00;99.90;;;;;;5027241;28;20077;-72
2024/01/30 09:28:14;;;;;;;13.15;4.57;;;6.00;99.90;;;;;;5028760;28;20049;-72
2024/01/30 09:30:40;;;;;;;6.88;3.63;;;6.00;99.90;;;;;;5025995;28;20025;-72
2024/01/30 09:33:06;;;;;;;8.98;4.43;;;6.00;99.90;;;;;;5022782;28;20382;-72
2024/01/30 09:35:33;;;;;;;10.23;4.97;;;6.20;99.90;;;;;;5023756;28;20777;-72
2024/01/30 09:37:59;;;;;;;8.30;4.22;;;6.20;99.90;;;;;;5030923;28;20025;-72
2024/01/30 09:40:25;;;;;;;11.38;3.90;;;6.20;99.90;;;;;;5011853;28;20037;-72
2024/01/30 09:42:51;;;;;;;7.38;3.65;;;6.30;99.90;;;;;;5026407;28;20038;-72
2024/01/30 09:45:25;;;;;;;8.88;3.90;;;6.40;99.90;;;;;;5020726;28;20033;-72
2024/01/30 09:47:52;;;;;;;7.93;4.18;;;6.50;99.90;;;;;;5030627;28;20195;-72
2024/01/30 09:50:19;;;;;;;8.90;3.88;;;6.60;99.90;;;;;;5030098;28;20048;-72
2024/01/30 09:52:49;;;;;;;11.23;5.13;;;6.80;99.90;;;;;;5030683;28;20029;-72
2024/01/30 09:55:15;;;;;;;10.30;4.27;;;6.80;99.90;;;;;;5029942;28;20242;-72
2024/01/30 09:57:42;;;;;;;9.45;4.57;;;6.90;99.90;;;;;;5027201;28;20307;-72
2024/01/30 10:00:09;;;;;;;8.80;4.28;;;6.80;99.90;;;;;;5006750;28;20034;-72
2024/01/30 10:02:40;;;;;;;9.68;3.83;;;6.90;99.90;;;;;;5025984;28;20026;-72
2024/01/30 10:05:06;;;;;;;8.52;4.80;;;7.00;99.90;;;;;;5026269;28;20022;-72
2024/01/30 10:07:31;;;;;;;8.38;3.90;;;6.80;99.90;;;;;;5028984;28;20044;-72
2024/01/30 10:09:57;;;;;;;8.73;3.78;;;6.90;99.90;;;;;;5029805;28;20029;-72
2024/01/30 10:12:25;;;;;;;8.18;4.57;;;6.90;99.90;;;;;;5029599;28;20363;-72
2024/01/30 10:14:51;;;;;;;9.05;4.25;;;7.00;99.90;;;;;;5012904;28;20033;-72
2024/01/30 10:17:17;;;;;;;10.25;4.38;;;7.00;99.90;;;;;;5029995;28;20033;-72
2024/01/30 10:19:42;;;;;;;10.18;4.75;;;7.00;99.90;;;;;;5024584;28;20080;-72
2024/01/30 10:22:09;;;;;;;8.57;4.70;;;6.90;99.90;;;;;;5030646;28;20381;-72
2024/01/30 10:24:36;;;;;;;10.13;4.40;;;7.10;99.90;;;;;;5030808;28;20500;-72
2024/01/30 10:27:02;;;;;;;8.30;4.75;;;7.10;99.90;;;;;;5022247;28;20486;-72
2024/01/30 10:29:29;;;;;;;8.23;4.10;;;7.30;99.90;;;;;;5037424;28;20033;-72
2024/01/30 10:32:02;;;;;;;8.38;4.57;;;7.40;99.90;;;;;;5010238;28;20026;-72
2024/01/30 10:34:29;;;;;;;8.00;4.07;;;7.40;99.90;;;;;;5028581;28;20126;-72
2024/01/30 10:37:12;;;;;;;7.15;5.15;;;7.40;99.90;;;;;;5013521;28;20513;-72
2024/01/30 10:39:40;;;;;;;11.18;4.88;;;7.50;99.90;;;;;;5026794;28;20153;-72
2024/01/30 10:42:10;;;;;;;7.60;4.07;;;7.50;99.90;;;;;;5029725;28;20535;-72
2024/01/30 10:45:08;;;;;;;13.02;4.22;;;7.50;99.90;;;;;;5029423;28;20030;-72
2024/01/30 10:47:36;;;;;;;9.95;5.05;;;7.50;99.90;;;;;;5022639;28;20029;-72
2024/01/30 10:50:05;;;;;;;10.15;3.95;;;7.50;99.90;;;;;;5029646;28;20386;-72
2024/01/30 10:52:32;;;;;;;9.57;4.25;;;7.60;99.90;;;;;;5030371;28;20041;-72
2024/01/30 10:54:58;;;;;;;11.27;4.47;;;7.70;99.90;;;;;;5029658;28;20086;-72
2024/01/30 10:57:26;;;;;;;8.07;3.97;;;7.60;99.90;;;;;;5029158;28;20082;-72
2024/01/30 11:00:01;;;;;;;10.70;5.03;;;7.70;99.90;;;;;;5017150;28;20037;-72
2024/01/30 11:02:28;;;;;;;9.10;3.90;;;8.00;99.90;;;;;;5031556;28;20036;-72
2024/01/30 11:05:00;;;;;;;14.75;4.97;;;8.20;99.90;;;;;;5032765;28;20112;-72
2024/01/30 11:07:29;;;;;;;12.07;4.00;;;8.10;99.90;;;;;;5031806;28;20057;-72
2024/01/30 11:09:58;;;;;;;7.20;3.75;;;8.00;99.90;;;;;;5032713;28;20032;-73
2024/01/30 11:12:25;;;;;;;9.10;4.97;;;8.50;99.90;;;;;;5032989;28;20033;-73
2024/01/30 11:15:15;;;;;;;10.40;4.03;;;9.10;99.90;;;;;;5031940;28;20026;-73
2024/01/30 11:17:53;;;;;;;8.77;4.35;;;9.60;99.90;;;;;;5041367;28;20038;-72
2024/01/30 11:20:27;;;;;;;9.02;4.47;;;9.50;99.90;;;;;;5025584;28;20033;-73
2024/01/30 11:22:55;;;;;;;6.60;4.40;;;9.30;99.90;;;;;;5032142;28;20152;-72
2024/01/30 11:25:23;;;;;;;10.95;5.38;;;9.30;99.90;;;;;;5023921;28;20021;-72
2024/01/30 11:27:54;;;;;;;9.10;4.47;;;8.80;99.90;;;;;;5032189;28;20032;-72
2024/01/30 11:30:23;;;;;;;12.55;4.50;;;8.90;99.90;;;;;;5033434;28;20516;-73
2024/01/30 11:33:30;;;;;;;10.02;4.47;;;9.00;99.90;;;;;;5031724;28;20037;-73
2024/01/30 11:36:01;;;;;;;13.80;5.15;;;9.30;99.90;;;;;;5021979;28;20393;-72
2024/01/30 11:38:28;;;;;;;9.18;4.97;;;9.90;99.90;;;;;;5029335;28;20583;-72
2024/01/30 11:40:57;;;;;;;8.32;4.60;;;9.80;99.90;;;;;;5020344;28;20030;-72
2024/01/30 11:43:23;;;;;;;14.40;4.05;;;9.70;99.90;;;;;;5029683;28;20077;-72
2024/01/30 11:45:50;;;;;;;6.15;3.28;;;9.60;99.90;;;;;;5012157;28;20034;-72
2024/01/30 11:48:19;;;;;;;13.18;4.57;;;9.50;99.90;;;;;;5029178;28;20155;-72
2024/01/30 11:50:45;;;;;;;10.15;4.15;;;9.50;99.90;;;;;;5028217;28;20034;-72
2024/01/30 11:53:11;;;;;;;9.45;3.38;;;9.30;99.90;;;;;;5027646;28;20173;-72
2024/01/30 11:55:37;;;;;;;7.22;3.92;;;9.30;99.90;;;;;;5029071;28;20040;-72
2024/01/30 11:58:04;;;;;;;9.15;4.63;;;9.20;99.90;;;;;;5028638;28;20033;-72
2024/01/30 12:00:33;;;;;;;11.65;4.00;;;9.10;99.90;;;;;;5030803;28;20029;-72
2024/01/30 12:03:00;;;;;;;9.20;4.50;;;9.20;99.90;;;;;;5032364;28;20026;-72
2024/01/30 12:05:27;;;;;;;15.73;5.68;;;9.20;99.90;;;;;;5032080;28;20040;-72
2024/01/30 12:07:53;;;;;;;6.47;3.67;;;9.20;99.90;;;;;;5031193;28;20117;-72
2024/01/30 12:10:21;;;;;;;14.13;3.72;;;9.30;99.90;;;;;;5031214;28;20072;-72
2024/01/30 12:12:49;;;;;;;7.93;4.07;;;9.20;99.90;;;;;;5026521;28;20037;-72
2024/01/30 12:15:16;;;;;;;10.55;4.00;;;9.30;99.90;;;;;;5013360;28;20026;-72
2024/01/30 12:17:41;;;;;;;14.02;5.30;;;9.40;99.90;;;;;;5030703;28;20041;-72
2024/01/30 12:20:15;;;;;;;10.88;4.40;;;9.40;99.90;;;;;;5015023;28;20087;-72
2024/01/30 12:22:49;;;;;;;16.20;4.88;;;9.60;99.90;;;;;;5030334;28;20048;-72
2024/01/30 12:25:20;;;;;;;10.70;4.15;;;9.50;99.90;;;;;;5031576;28;20037;-72
2024/01/30 12:27:51;;;;;;;;;;;9.60;99.90;;;;;;5032524;28;20042;-72
2024/01/30 12:30:20;;;;;;;12.23;4.10;;;9.60;99.90;;;;;;5032221;28;20374;-72
2024/01/30 12:32:47;;;;;;;13.70;4.93;;;9.70;99.90;;;;;;5019656;28;20378;-72
2024/01/30 12:35:17;;;;;;;8.77;4.57;;;9.70;99.90;;;;;;5030839;28;20033;-73
2024/01/30 12:37:47;;;;;;;10.88;5.03;;;9.80;99.90;;;;;;5030614;28;20037;-72
2024/01/30 12:40:17;;;;;;;10.55;4.75;;;10.00;99.90;;;;;;5032026;28;20044;-72
2024/01/30 12:42:48;;;;;;;11.43;5.22;;;10.00;99.90;;;;;;5030010;28;20045;-72
2024/01/30 12:45:15;;;;;;;10.43;4.53;;;9.90;99.90;;;;;;5031023;28;20417;-72
2024/01/30 12:47:42;;;;;;;9.45;4.22;;;10.00;99.90;;;;;;5030846;28;20025;-72
2024/01/30 12:50:08;;;;;;;8.13;4.18;;;10.10;99.90;;;;;;5031162;28;20075;-72
2024/01/30 12:52:35;;;;;;;7.63;4.38;;;10.10;99.90;;;;;;5029713;28;20168;-72